createdAt,value
2018-08-11T00:00:40.785Z,65.90
2018-08-11T00:03:08.081Z,66.20
2018-08-11T00:05:35.393Z,66.50
2018-08-11T00:08:02.726Z,66.60
2018-08-11T00:10:30.081Z,66.70
2018-08-11T00:12:57.403Z,67.10
2018-08-11T00:15:24.731Z,67.10
2018-08-11T00:17:52.029Z,67.10
2018-08-11T00:20:23.568Z,67.40
2018-08-11T00:22:50.871Z,67.00
2018-08-11T00:25:18.197Z,66.70
2018-08-11T00:27:45.482Z,66.70
2018-08-11T00:30:14.453Z,66.90
2018-08-11T00:32:41.793Z,67.10
2018-08-11T00:35:09.604Z,67.60
2018-08-11T00:37:36.918Z,67.30
2018-08-11T00:40:06.701Z,67.40
2018-08-11T00:42:34.149Z,66.80
2018-08-11T00:45:01.437Z,66.60
2018-08-11T00:47:28.765Z,66.70
2018-08-11T00:49:56.056Z,66.70
2018-08-11T00:52:23.333Z,67.10
2018-08-11T00:54:50.639Z,67.10
2018-08-11T00:57:18.002Z,66.60
2018-08-11T00:59:45.307Z,66.30
2018-08-11T01:02:12.626Z,67.00
2018-08-11T01:04:39.913Z,67.60
2018-08-11T01:07:07.232Z,68.50
2018-08-11T01:09:34.537Z,68.40
2018-08-11T01:12:01.843Z,68.50
2018-08-11T01:14:29.144Z,68.30
2018-08-11T01:16:56.450Z,68.10
2018-08-11T01:19:23.789Z,68.20
2018-08-11T01:21:51.082Z,68.10
2018-08-11T01:24:18.465Z,68.00
2018-08-11T01:26:45.753Z,67.70
2018-08-11T01:29:13.118Z,67.40
2018-08-11T01:31:40.451Z,67.80
2018-08-11T01:34:07.760Z,68.20
2018-08-11T01:36:35.077Z,68.10
2018-08-11T01:39:02.467Z,68.00
2018-08-11T01:41:29.798Z,68.10
2018-08-11T01:43:57.105Z,68.00
2018-08-11T01:46:24.422Z,67.90
2018-08-11T01:48:51.706Z,68.10
2018-08-11T01:51:19.017Z,67.70
2018-08-11T01:53:46.767Z,67.70
2018-08-11T01:56:14.082Z,67.80
2018-08-11T01:58:41.406Z,67.90
2018-08-11T02:01:08.736Z,67.60
2018-08-11T02:03:36.018Z,67.90
2018-08-11T02:06:03.340Z,68.10
2018-08-11T02:08:30.702Z,68.10
2018-08-11T02:10:58.017Z,67.70
2018-08-11T02:13:25.353Z,67.70
2018-08-11T02:15:52.658Z,67.60
2018-08-11T02:18:19.966Z,68.00
2018-08-11T02:20:47.275Z,68.00
2018-08-11T02:23:14.630Z,67.80
2018-08-11T02:25:41.946Z,67.80
2018-08-11T02:28:09.591Z,68.30
2018-08-11T02:30:36.897Z,68.10
2018-08-11T02:33:04.195Z,68.60
2018-08-11T02:35:31.516Z,68.60
2018-08-11T02:37:58.826Z,68.70
2018-08-11T02:40:26.253Z,68.50
2018-08-11T02:42:53.568Z,68.50
2018-08-11T02:45:20.887Z,68.40
2018-08-11T02:47:48.205Z,68.40
2018-08-11T02:50:15.498Z,68.10
2018-08-11T02:52:42.830Z,68.50
2018-08-11T02:55:10.166Z,68.30
2018-08-11T02:57:37.475Z,68.60
2018-08-11T03:00:05.919Z,68.90
2018-08-11T03:02:33.353Z,69.80
2018-08-11T03:05:00.561Z,69.50
2018-08-11T03:07:27.864Z,69.80
2018-08-11T03:09:55.154Z,68.80
2018-08-11T03:12:22.460Z,68.80
2018-08-11T03:14:49.749Z,68.90
2018-08-11T03:17:17.154Z,68.60
2018-08-11T03:19:44.454Z,68.40
2018-08-11T03:22:11.773Z,68.50
2018-08-11T03:24:39.085Z,68.50
2018-08-11T03:27:06.419Z,68.20
2018-08-11T03:29:33.713Z,68.40
2018-08-11T03:32:01.014Z,68.60
2018-08-11T03:34:28.357Z,68.70
2018-08-11T03:36:55.670Z,68.40
2018-08-11T03:39:22.990Z,68.10
2018-08-11T03:41:50.298Z,68.40
2018-08-11T03:44:17.593Z,68.40
2018-08-11T03:46:44.889Z,68.60
2018-08-11T03:49:12.241Z,68.90
2018-08-11T03:51:39.610Z,68.70
2018-08-11T03:54:07.190Z,68.20
2018-08-11T03:56:34.496Z,68.40
2018-08-11T03:59:01.798Z,69.00
2018-08-11T04:01:29.109Z,70.00
2018-08-11T04:03:56.414Z,70.40
2018-08-11T04:06:23.730Z,70.50
2018-08-11T04:08:51.027Z,70.60
2018-08-11T04:11:18.317Z,70.80
2018-08-11T04:13:45.633Z,70.80
2018-08-11T04:16:12.954Z,71.10
2018-08-11T04:18:40.263Z,71.20
2018-08-11T04:21:07.567Z,71.20
2018-08-11T04:23:34.886Z,71.60
2018-08-11T04:26:02.184Z,71.80
2018-08-11T04:28:29.501Z,71.60
2018-08-11T04:30:56.793Z,71.40
2018-08-11T04:33:24.095Z,71.50
2018-08-11T04:35:51.400Z,71.10
2018-08-11T04:38:18.739Z,70.50
2018-08-11T04:40:46.009Z,70.20
2018-08-11T04:43:13.318Z,69.90
2018-08-11T04:45:40.618Z,69.70
2018-08-11T04:48:07.916Z,69.60
2018-08-11T04:50:35.198Z,69.70
2018-08-11T04:53:02.525Z,69.00
2018-08-11T04:55:29.856Z,69.00
2018-08-11T04:57:57.145Z,69.20
2018-08-11T05:00:24.474Z,69.40
2018-08-11T05:02:51.794Z,69.80
2018-08-11T05:05:19.088Z,69.80
2018-08-11T05:07:46.413Z,70.20
2018-08-11T05:10:13.718Z,70.40
2018-08-11T05:12:41.041Z,69.80
2018-08-11T05:15:08.357Z,69.70
2018-08-11T05:17:35.666Z,69.20
2018-08-11T05:20:03.002Z,68.90
2018-08-11T05:22:30.338Z,69.00
2018-08-11T05:24:57.625Z,69.00
2018-08-11T05:27:24.942Z,69.20
2018-08-11T05:29:52.671Z,69.40
2018-08-11T05:32:19.966Z,70.10
2018-08-11T05:34:47.258Z,70.60
2018-08-11T05:37:14.576Z,70.50
2018-08-11T05:39:41.859Z,70.70
2018-08-11T05:42:09.185Z,70.60
2018-08-11T05:44:36.498Z,70.60
2018-08-11T05:47:04.054Z,70.20
2018-08-11T05:49:31.375Z,69.90
2018-08-11T05:51:58.678Z,70.30
2018-08-11T05:54:26.022Z,70.10
2018-08-11T05:56:53.310Z,69.90
2018-08-11T05:59:20.612Z,69.40
2018-08-11T06:01:47.906Z,69.60
2018-08-11T06:04:15.257Z,70.60
2018-08-11T06:06:42.553Z,72.60
2018-08-11T06:09:09.912Z,72.50
2018-08-11T06:11:37.247Z,70.00
2018-08-11T06:14:06.358Z,70.10
2018-08-11T06:16:33.640Z,70.90
2018-08-11T06:19:00.941Z,70.60
2018-08-11T06:21:28.232Z,70.70
2018-08-11T06:23:55.555Z,70.40
2018-08-11T06:26:22.825Z,70.60
2018-08-11T06:28:50.150Z,69.80
2018-08-11T06:31:17.515Z,69.70
2018-08-11T06:33:44.827Z,69.10
2018-08-11T06:36:12.134Z,67.90
2018-08-11T06:38:39.598Z,68.60
2018-08-11T06:41:06.918Z,68.00
2018-08-11T06:43:34.215Z,68.40
2018-08-11T06:46:01.505Z,68.40
2018-08-11T06:48:28.910Z,68.50
2018-08-11T06:50:56.292Z,68.80
2018-08-11T06:53:23.568Z,68.30
2018-08-11T06:55:50.895Z,68.80
2018-08-11T06:58:18.191Z,68.20
2018-08-11T07:00:45.474Z,68.50
2018-08-11T07:03:12.816Z,68.50
2018-08-11T07:05:40.181Z,68.20
2018-08-11T07:08:07.574Z,68.10
2018-08-11T07:10:34.891Z,68.40
2018-08-11T07:13:02.202Z,68.90
2018-08-11T07:15:29.478Z,69.90
2018-08-11T07:17:56.799Z,69.40
2018-08-11T07:20:24.553Z,70.10
2018-08-11T07:22:51.850Z,70.40
2018-08-11T07:25:19.150Z,69.50
2018-08-11T07:27:46.435Z,69.30
2018-08-11T07:30:13.761Z,68.40
2018-08-11T07:32:41.049Z,68.20
2018-08-11T07:35:08.340Z,68.10
2018-08-11T07:37:35.673Z,68.80
2018-08-11T07:40:03.649Z,68.10
2018-08-11T07:42:30.954Z,67.60
2018-08-11T07:44:58.271Z,66.90
2018-08-11T07:47:25.646Z,65.60
2018-08-11T07:49:52.894Z,65.80
2018-08-11T07:52:20.207Z,65.80
2018-08-11T07:54:47.524Z,65.90
2018-08-11T07:57:14.859Z,65.40
2018-08-11T07:59:42.326Z,64.90
2018-08-11T08:02:09.598Z,64.40
2018-08-11T08:04:36.910Z,64.60
2018-08-11T08:07:04.254Z,64.10
2018-08-11T08:09:31.560Z,63.90
2018-08-11T08:11:58.847Z,62.70
2018-08-11T08:14:26.122Z,62.90
2018-08-11T08:16:53.433Z,63.60
2018-08-11T08:19:20.735Z,63.10
2018-08-11T08:21:48.148Z,61.70
2018-08-11T08:24:15.487Z,61.90
2018-08-11T08:26:42.774Z,61.70
2018-08-11T08:29:10.103Z,61.60
2018-08-11T08:31:37.402Z,61.50
2018-08-11T08:34:04.727Z,61.40
2018-08-11T08:36:32.022Z,61.50
2018-08-11T08:38:59.311Z,60.80
2018-08-11T08:41:26.609Z,62.20
2018-08-11T08:43:54.189Z,62.90
2018-08-11T08:46:22.190Z,62.20
2018-08-11T08:48:49.510Z,61.10
2018-08-11T08:51:16.828Z,60.30
2018-08-11T08:53:44.121Z,60.30
2018-08-11T08:56:11.422Z,60.20
2018-08-11T08:58:38.708Z,61.00
2018-08-11T09:01:06.051Z,61.60
2018-08-11T09:03:33.364Z,59.30
2018-08-11T09:06:00.663Z,59.30
2018-08-11T09:08:28.058Z,58.50
2018-08-11T09:10:55.388Z,59.70
2018-08-11T09:13:22.758Z,58.20
2018-08-11T09:15:50.101Z,58.90
2018-08-11T09:18:17.373Z,56.30
2018-08-11T09:20:44.765Z,57.20
2018-08-11T09:23:12.075Z,55.90
2018-08-11T09:25:39.386Z,55.30
2018-08-11T09:28:06.683Z,55.20
2018-08-11T09:30:34.021Z,54.30
2018-08-11T09:33:01.314Z,53.70
2018-08-11T09:35:28.614Z,53.70
2018-08-11T09:37:56.187Z,53.90
2018-08-11T09:40:23.497Z,54.70
2018-08-11T09:42:50.775Z,52.90
2018-08-11T09:45:18.088Z,54.80
2018-08-11T09:47:45.390Z,54.70
2018-08-11T09:50:12.679Z,55.70
2018-08-11T09:52:40.124Z,55.60
2018-08-11T09:55:07.422Z,54.90
2018-08-11T09:57:34.810Z,54.20
2018-08-11T10:00:02.263Z,55.20
2018-08-11T10:02:29.550Z,55.50
2018-08-11T10:04:56.941Z,54.90
2018-08-11T10:07:24.226Z,54.40
2018-08-11T10:09:51.554Z,55.20
2018-08-11T10:12:18.837Z,54.60
2018-08-11T10:14:46.205Z,55.20
2018-08-11T10:17:13.493Z,55.20
2018-08-11T10:19:40.853Z,55.10
2018-08-11T10:22:08.161Z,55.80
2018-08-11T10:24:35.496Z,56.30
2018-08-11T10:27:02.928Z,56.40
2018-08-11T10:29:30.273Z,56.00
2018-08-11T10:31:57.555Z,55.70
2018-08-11T10:34:25.033Z,55.10
2018-08-11T10:36:52.287Z,54.90
2018-08-11T10:39:19.681Z,55.40
2018-08-11T10:41:47.041Z,55.70
2018-08-11T10:44:14.349Z,55.70
2018-08-11T10:46:41.670Z,55.50
2018-08-11T10:49:08.982Z,55.20
2018-08-11T10:51:36.302Z,54.40
2018-08-11T10:54:03.666Z,54.80
2018-08-11T10:56:31.341Z,54.80
2018-08-11T10:58:58.647Z,53.70
2018-08-11T11:01:26.007Z,54.20
2018-08-11T11:03:53.367Z,54.20
2018-08-11T11:06:20.673Z,52.90
2018-08-11T11:08:47.965Z,53.00
2018-08-11T11:11:15.274Z,52.70
2018-08-11T11:13:42.573Z,52.50
2018-08-11T11:16:10.027Z,51.70
2018-08-11T11:18:37.307Z,51.40
2018-08-11T11:21:04.651Z,52.60
2018-08-11T11:23:32.058Z,52.80
2018-08-11T11:25:59.406Z,52.80
2018-08-11T11:28:26.733Z,52.50
2018-08-11T11:30:54.064Z,53.30
2018-08-11T11:33:21.359Z,53.00
2018-08-11T11:35:48.673Z,52.90
2018-08-11T11:38:15.984Z,51.90
2018-08-11T11:40:43.346Z,51.90
2018-08-11T11:43:10.716Z,50.20
2018-08-11T11:45:38.039Z,49.70
2018-08-11T11:48:05.634Z,51.00
2018-08-11T11:50:33.005Z,51.30
2018-08-11T11:53:00.286Z,51.50
2018-08-11T11:55:27.657Z,51.50
2018-08-11T11:57:54.971Z,50.90
2018-08-11T12:00:22.274Z,51.60
2018-08-11T12:02:49.596Z,50.60
2018-08-11T12:05:17.022Z,50.20
2018-08-11T12:07:44.377Z,49.60
2018-08-11T12:10:11.687Z,48.70
2018-08-11T12:12:39.001Z,48.10
2018-08-11T12:15:06.537Z,48.70
2018-08-11T12:17:33.966Z,48.30
2018-08-11T12:20:01.332Z,48.20
2018-08-11T12:22:28.642Z,47.30
2018-08-11T12:24:55.954Z,47.90
2018-08-11T12:27:23.242Z,46.90
2018-08-11T12:29:50.555Z,46.80
2018-08-11T12:32:17.833Z,47.20
2018-08-11T12:34:45.140Z,46.90
2018-08-11T12:37:12.447Z,48.00
2018-08-11T12:39:39.755Z,46.90
2018-08-11T12:42:07.407Z,46.00
2018-08-11T12:44:34.720Z,46.60
2018-08-11T12:47:02.045Z,46.90
2018-08-11T12:49:29.360Z,48.00
2018-08-11T12:51:56.705Z,48.40
2018-08-11T12:54:23.982Z,48.00
2018-08-11T12:56:51.296Z,48.60
2018-08-11T12:59:18.743Z,48.00
2018-08-11T13:01:46.043Z,47.80
2018-08-11T13:04:13.358Z,48.50
2018-08-11T13:06:40.661Z,47.40
2018-08-11T13:09:08.116Z,48.10
2018-08-11T13:11:35.421Z,48.10
2018-08-11T13:14:02.795Z,48.70
2018-08-11T13:16:30.105Z,48.30
2018-08-11T13:18:57.403Z,48.20
2018-08-11T13:21:24.723Z,47.00
2018-08-11T13:23:52.031Z,47.20
2018-08-11T13:26:19.334Z,46.90
2018-08-11T13:28:46.660Z,47.20
2018-08-11T13:31:13.933Z,46.60
2018-08-11T13:33:41.241Z,45.40
2018-08-11T13:36:08.553Z,47.60
2018-08-11T13:38:35.912Z,47.30
2018-08-11T13:41:03.245Z,47.40
2018-08-11T13:43:30.552Z,47.90
2018-08-11T13:45:57.881Z,48.20
2018-08-11T13:48:25.190Z,48.40
2018-08-11T13:50:52.474Z,47.80
2018-08-11T13:53:19.792Z,48.30
2018-08-11T13:55:47.096Z,48.70
2018-08-11T13:58:14.406Z,47.80
2018-08-11T14:00:41.773Z,48.20
2018-08-11T14:03:09.161Z,47.40
2018-08-11T14:05:36.587Z,47.50
2018-08-11T14:08:04.098Z,47.90
2018-08-11T14:10:31.381Z,47.70
2018-08-11T14:12:58.683Z,47.10
2018-08-11T14:15:25.997Z,47.10
2018-08-11T14:17:53.312Z,47.80
2018-08-11T14:20:20.639Z,47.30
2018-08-11T14:22:47.921Z,47.00
2018-08-11T14:25:15.210Z,47.70
2018-08-11T14:27:42.527Z,47.40
2018-08-11T14:30:09.810Z,47.20
2018-08-11T14:32:37.142Z,46.70
2018-08-11T14:35:04.618Z,45.80
2018-08-11T14:37:31.942Z,45.90
2018-08-11T14:39:59.255Z,46.00
2018-08-11T14:42:26.546Z,44.60
2018-08-11T14:44:55.218Z,45.10
2018-08-11T14:47:22.543Z,44.90
2018-08-11T14:49:49.844Z,45.00
2018-08-11T14:52:17.155Z,44.90
2018-08-11T14:54:44.452Z,45.40
2018-08-11T14:57:11.738Z,45.00
2018-08-11T14:59:39.058Z,44.70
2018-08-11T15:02:06.443Z,44.30
2018-08-11T15:04:33.775Z,44.80
2018-08-11T15:07:01.197Z,45.50
2018-08-11T15:09:28.606Z,44.80
2018-08-11T15:11:55.942Z,45.40
2018-08-11T15:14:23.258Z,45.60
2018-08-11T15:16:50.562Z,45.00
2018-08-11T15:19:17.866Z,45.60
2018-08-11T15:21:45.163Z,45.40
2018-08-11T15:24:12.464Z,44.80
2018-08-11T15:26:39.810Z,44.90
2018-08-11T15:29:07.478Z,44.60
2018-08-11T15:31:34.822Z,45.50
2018-08-11T15:34:02.179Z,44.50
2018-08-11T15:36:29.476Z,44.50
2018-08-11T15:38:56.818Z,44.00
2018-08-11T15:41:24.136Z,44.80
2018-08-11T15:43:51.483Z,45.30
2018-08-11T15:46:18.804Z,43.70
2018-08-11T15:48:46.185Z,45.00
2018-08-11T15:51:13.455Z,45.70
2018-08-11T15:53:40.730Z,45.60
2018-08-11T15:56:08.127Z,45.40
2018-08-11T15:58:35.475Z,44.10
2018-08-11T16:01:02.794Z,43.00
2018-08-11T16:03:30.391Z,42.70
2018-08-11T16:05:57.742Z,43.10
2018-08-11T16:08:25.070Z,44.00
2018-08-11T16:10:52.400Z,44.20
2018-08-11T16:13:19.781Z,44.30
2018-08-11T16:15:47.070Z,45.10
2018-08-11T16:18:14.362Z,44.40
2018-08-11T16:20:41.667Z,44.40
2018-08-11T16:23:08.974Z,43.90
2018-08-11T16:25:36.385Z,42.80
2018-08-11T16:28:03.950Z,42.40
2018-08-11T16:30:31.335Z,42.30
2018-08-11T16:32:58.646Z,42.40
2018-08-11T16:35:25.946Z,42.30
2018-08-11T16:37:53.359Z,41.70
2018-08-11T16:40:20.670Z,41.70
2018-08-11T16:42:47.959Z,42.00
2018-08-11T16:45:15.375Z,41.50
2018-08-11T16:47:42.693Z,41.20
2018-08-11T16:50:09.969Z,41.40
2018-08-11T16:52:37.274Z,41.30
2018-08-11T16:55:04.656Z,41.30
2018-08-11T16:57:32.011Z,41.80
2018-08-11T16:59:59.322Z,42.40
2018-08-11T17:02:26.645Z,42.50
2018-08-11T17:04:53.943Z,42.00
2018-08-11T17:07:21.270Z,41.90
2018-08-11T17:09:48.554Z,42.20
2018-08-11T17:12:15.869Z,42.90
2018-08-11T17:14:48.113Z,42.80
2018-08-11T17:17:15.347Z,43.20
2018-08-11T17:19:42.641Z,43.70
2018-08-11T17:22:10.958Z,43.50
2018-08-11T17:24:38.349Z,43.40
2018-08-11T17:27:05.698Z,43.00
2018-08-11T17:29:33.075Z,43.10
2018-08-11T17:32:00.376Z,43.60
2018-08-11T17:34:27.672Z,43.30
2018-08-11T17:36:54.964Z,43.90
2018-08-11T17:39:22.291Z,44.20
2018-08-11T17:41:49.613Z,44.20
2018-08-11T17:44:16.902Z,44.50
2018-08-11T17:46:44.207Z,44.30
2018-08-11T17:49:11.513Z,44.70
2018-08-11T17:51:38.890Z,45.30
2018-08-11T17:54:06.383Z,45.80
2018-08-11T17:56:33.728Z,45.80
2018-08-11T17:59:01.039Z,45.60
2018-08-11T18:01:28.333Z,45.40
2018-08-11T18:03:55.628Z,45.50
2018-08-11T18:06:22.947Z,45.70
2018-08-11T18:08:50.306Z,46.10
2018-08-11T18:11:17.617Z,45.80
2018-08-11T18:13:44.910Z,45.80
2018-08-11T18:16:12.257Z,46.00
2018-08-11T18:18:39.642Z,46.20
2018-08-11T18:21:06.955Z,46.50
2018-08-11T18:23:34.298Z,46.30
2018-08-11T18:26:01.603Z,46.50
2018-08-11T18:28:28.892Z,46.90
2018-08-11T18:30:56.228Z,47.10
2018-08-11T18:33:23.529Z,47.20
2018-08-11T18:35:51.859Z,47.50
2018-08-11T18:38:19.171Z,47.90
2018-08-11T18:40:46.462Z,48.20
2018-08-11T18:43:13.829Z,48.50
2018-08-11T18:45:41.107Z,48.50
2018-08-11T18:48:08.392Z,48.70
2018-08-11T18:50:35.734Z,48.80
2018-08-11T18:53:03.045Z,49.20
2018-08-11T18:55:30.542Z,49.40
2018-08-11T18:57:57.909Z,49.50
2018-08-11T19:00:25.190Z,49.60
2018-08-11T19:02:52.523Z,49.60
2018-08-11T19:05:19.840Z,49.80
2018-08-11T19:07:47.122Z,49.80
2018-08-11T19:10:14.467Z,50.10
2018-08-11T19:12:41.853Z,50.20
2018-08-11T19:15:11.522Z,50.10
2018-08-11T19:17:38.987Z,50.30
2018-08-11T19:20:07.097Z,50.10
2018-08-11T19:22:34.382Z,50.20
2018-08-11T19:25:01.693Z,50.10
2018-08-11T19:27:29.017Z,50.30
2018-08-11T19:29:56.339Z,50.40
2018-08-11T19:32:23.646Z,51.30
2018-08-11T19:34:50.938Z,51.30
2018-08-11T19:37:18.234Z,51.20
2018-08-11T19:39:45.535Z,51.30
2018-08-11T19:42:12.894Z,51.60
2018-08-11T19:44:40.321Z,52.60
2018-08-11T19:47:07.633Z,52.40
2018-08-11T19:49:34.970Z,52.60
2018-08-11T19:52:02.274Z,52.60
2018-08-11T19:54:29.653Z,53.40
2018-08-11T19:56:57.178Z,53.60
2018-08-11T19:59:24.505Z,53.80
2018-08-11T20:01:51.827Z,54.70
2018-08-11T20:04:19.141Z,54.30
2018-08-11T20:06:46.499Z,54.50
2018-08-11T20:09:14.186Z,53.80
2018-08-11T20:11:41.625Z,54.00
2018-08-11T20:14:08.960Z,54.40
2018-08-11T20:16:36.247Z,54.70
2018-08-11T20:19:04.041Z,54.40
2018-08-11T20:21:31.773Z,56.00
2018-08-11T20:23:59.108Z,55.60
2018-08-11T20:26:26.531Z,56.30
2018-08-11T20:28:54.056Z,56.10
2018-08-11T20:31:21.373Z,56.20
2018-08-11T20:33:48.726Z,56.70
2018-08-11T20:36:16.071Z,56.90
2018-08-11T20:38:43.415Z,56.80
2018-08-11T20:41:10.775Z,57.20
2018-08-11T20:43:38.189Z,57.10
2018-08-11T20:46:05.518Z,57.20
2018-08-11T20:48:32.993Z,58.20
2018-08-11T20:51:00.326Z,57.20
2018-08-11T20:53:28.077Z,56.60
2018-08-11T20:55:55.444Z,57.40
2018-08-11T20:58:22.764Z,57.20
2018-08-11T21:00:50.041Z,57.50
2018-08-11T21:03:17.633Z,59.80
2018-08-11T21:05:44.925Z,58.40
2018-08-11T21:08:12.318Z,61.80
2018-08-11T21:10:39.627Z,58.40
2018-08-11T21:13:06.922Z,60.40
2018-08-11T21:15:34.295Z,58.20
2018-08-11T21:18:01.617Z,58.20
2018-08-11T21:20:28.934Z,58.00
2018-08-11T21:22:56.252Z,58.30
2018-08-11T21:25:23.559Z,58.70
2018-08-11T21:27:50.918Z,60.10
2018-08-11T21:30:18.335Z,63.20
2018-08-11T21:32:45.653Z,63.00
2018-08-11T21:35:13.014Z,63.60
2018-08-11T21:37:40.342Z,61.10
2018-08-11T21:40:09.303Z,59.90
2018-08-11T21:42:36.596Z,61.70
2018-08-11T21:45:04.197Z,61.20
2018-08-11T21:47:31.497Z,63.10
2018-08-11T21:49:59.654Z,62.30
2018-08-11T21:52:27.021Z,59.90
2018-08-11T21:54:54.738Z,63.90
2018-08-11T21:57:22.042Z,62.40
2018-08-11T21:59:49.361Z,63.00
2018-08-11T22:02:16.686Z,63.70
2018-08-11T22:04:44.019Z,61.60
2018-08-11T22:07:11.332Z,61.40
2018-08-11T22:09:38.644Z,61.00
2018-08-11T22:12:05.963Z,61.90
2018-08-11T22:14:33.317Z,61.90
2018-08-11T22:17:00.586Z,62.20
2018-08-11T22:19:27.905Z,61.60
2018-08-11T22:21:55.191Z,61.70
2018-08-11T22:24:22.477Z,62.30
2018-08-11T22:26:49.803Z,61.50
2018-08-11T22:29:17.129Z,61.30
2018-08-11T22:31:44.459Z,60.00
2018-08-11T22:34:11.757Z,60.70
2018-08-11T22:36:39.124Z,62.00
2018-08-11T22:39:06.923Z,61.20
2018-08-11T22:41:34.304Z,60.90
2018-08-11T22:44:01.639Z,60.70
2018-08-11T22:46:29.112Z,60.50
2018-08-11T22:48:56.388Z,61.50
2018-08-11T22:51:23.682Z,61.60
2018-08-11T22:53:50.993Z,61.40
2018-08-11T22:56:18.281Z,62.00
2018-08-11T22:58:45.602Z,61.40
2018-08-11T23:01:12.943Z,62.60
2018-08-11T23:03:40.229Z,61.70
2018-08-11T23:06:07.529Z,61.70
2018-08-11T23:08:34.859Z,60.80
2018-08-11T23:11:02.150Z,60.70
2018-08-11T23:13:29.444Z,60.90
2018-08-11T23:15:56.773Z,61.40
2018-08-11T23:18:24.067Z,61.30
2018-08-11T23:20:51.383Z,62.20
2018-08-11T23:23:18.697Z,63.30
2018-08-11T23:25:45.996Z,63.00
2018-08-11T23:28:13.307Z,63.90
2018-08-11T23:30:40.640Z,64.20
2018-08-11T23:33:07.937Z,64.50
2018-08-11T23:35:35.279Z,64.70
2018-08-11T23:38:02.629Z,64.40
2018-08-11T23:40:29.906Z,63.90
2018-08-11T23:42:57.222Z,63.80
2018-08-11T23:45:24.517Z,65.70
2018-08-11T23:47:51.858Z,64.90
2018-08-11T23:50:19.215Z,64.50
2018-08-11T23:52:46.540Z,64.50
2018-08-11T23:55:13.850Z,64.60
2018-08-11T23:57:41.273Z,64.60
